Etusivu
METAR-TAF:

METAR-TAF

Lentoasemat :

El Borma, Tunisia

Leveyspiiri: 31-41N, Pituuspiiri: 009-10E, korkeus merenpinnasta: 258 m

Tämänhetkinen sää

Tämä raportti tehtiin 48 minuuttia sitten, kello 08.00 UTC
Tuuli 4 kn idästä/kaakosta
Lämpötila 14°C
Kosteus 31%
Ilmanpaine 1016 hPa
Näkyvyys 10 km tai enemmän
ei pilviä alle 1500 m:ssä eikä cumulonimbus-pilviä

METAR: DTTR 030800Z 12004KT CAVOK 14/M03 Q1016

Aika: 09:48 (08:48 UTC)

Sääennuste

Tämä raportti tehtiin 2 tuntia ja 48 minuuttia sitten, kello 06.00 UTC
Ennuste voimassa 03. päivästä klo 07 UTC - 03. päivään klo 16 UTC
Tuuli 2 kn eri suunnista
Näkyvyys 10 km tai enemmän
ei pilviä alle 1500 m:ssä eikä cumulonimbus-pilviä
Tulossa
03. päivästä klo 10 UTC - 03. päivään klo 12 UTC
Tuuli 10 kn lounaasta

TAF: DTTR 030600Z 0307/0316 VRB02KT CAVOK BECMG 0310/0312 23010KT

Säähavainnot ja -ennusteet yli 4000 lentoasemalta (METAR- ja TAF-raportit).

Käytössä olevat sääasemat on merkitty karttaan keltaisilla ja punaisilla pisteillä.

Aseta hiiri pisteen päälle nähdäksesi sääaseman nimen.

Klikkaa sitten nähdäksesi säähavainnot ja -ennusteet.

Kartan vaihtaminen: klikkaa mustalla rastilla varustettuja vihreitä pisteitä, niin voit zoomata sisään; viivalla varustettua vihreää pistettä, niin voit zoomata ulos tai vihreitä nuolia, niin pääset viereisille kartoille.


METAR-TAF: